Etusivu
METAR-TAF:

METAR-TAF

Lentoasemat :

Båtsfjord, Norja

Leveyspiiri: 70-38N, Pituuspiiri: 029-44E, korkeus merenpinnasta: 10 m

Tämänhetkinen sää

Tämä raportti tehtiin 4 tuntia ja 15 minuuttia sitten, kello 21.50 UTC
Tuuli 16 kn idästä/koillisesta
Lämpötila -9°C
Kosteus 92%
Ilmanpaine 996 hPa
Näkyvyys: 4000 m
heikkoja lumikuuroja

METAR: ENBS 192150Z 06016KT 4000 -SHSN VV016 M09/M10 Q0996

Aika: 03:05 (02:05 UTC)


TAF: puuttuu

Säähavainnot ja -ennusteet yli 4000 lentoasemalta (METAR- ja TAF-raportit).

Käytössä olevat sääasemat on merkitty karttaan keltaisilla ja punaisilla pisteillä.

Aseta hiiri pisteen päälle nähdäksesi sääaseman nimen.

Klikkaa sitten nähdäksesi säähavainnot ja -ennusteet.

Kartan vaihtaminen: klikkaa mustalla rastilla varustettuja vihreitä pisteitä, niin voit zoomata sisään; viivalla varustettua vihreää pistettä, niin voit zoomata ulos tai vihreitä nuolia, niin pääset viereisille kartoille.


METAR-TAF: